Time;durP1;ratioP1;P1;durP2;ratioP2;P2;SDS_P1;SDS_P2;PMS_P1;PMS_P2;Temp;Humidity;BMP_temperature;BMP_pressure;BME280_temperature;BME280_humidity;BME280_pressure;Samples;Min_cycle;Max_cycle;Signal;HPM_P1;HPM_P2
2022/12/08 00:00:51;;;;;;;10.50;5.80;;;;;;;1.37;80.97;98563.12;102370;1292;74409;-24
2022/12/08 00:03:18;;;;;;;10.20;6.00;;;;;;;1.35;80.39;98564.76;102345;1298;61355;-24
2022/12/08 00:11:19;;;;;;;8.20;5.70;;;;;;;0.63;82.26;98568.30;102397;1296;76172;-24
2022/12/08 00:13:46;;;;;;;13.60;6.40;;;;;;;0.52;83.10;98573.27;102360;1299;74232;-24
2022/12/08 00:16:13;;;;;;;8.30;4.20;;;;;;;0.92;82.67;98570.34;102273;1291;61016;-24
2022/12/08 00:18:40;;;;;;;13.10;6.30;;;;;;;1.17;81.32;98574.73;102325;1299;61689;-24
2022/12/08 00:21:09;;;;;;;12.40;7.00;;;;;;;1.01;81.32;98576.91;102364;1291;75427;-24
2022/12/08 00:23:36;;;;;;;7.80;5.10;;;;;;;0.84;81.75;98571.23;102323;1291;75641;-24
2022/12/08 00:26:03;;;;;;;8.70;5.30;;;;;;;0.65;82.32;98566.88;102363;1298;74223;-25
2022/12/08 00:28:31;;;;;;;10.80;6.60;;;;;;;0.56;82.90;98569.17;102251;1301;62806;-25
2022/12/08 00:30:58;;;;;;;12.30;6.50;;;;;;;0.90;82.35;98572.65;102080;1297;61995;-25
2022/12/08 00:33:27;;;;;;;13.50;6.70;;;;;;;1.18;81.00;98574.33;102284;1297;74651;-25
2022/12/08 00:35:54;;;;;;;7.60;5.00;;;;;;;0.94;81.09;98575.56;102296;1289;76262;-25
2022/12/08 00:38:21;;;;;;;8.90;6.20;;;;;;;0.70;81.54;98579.40;102406;1283;74262;-25
2022/12/08 00:40:48;;;;;;;7.70;3.90;;;;;;;0.42;82.47;98581.42;102320;1291;61160;-25
2022/12/08 00:43:15;;;;;;;9.40;6.00;;;;;;;0.42;83.14;98580.91;102347;1299;61771;-25
2022/12/08 00:45:42;;;;;;;10.70;4.70;;;;;;;0.87;82.24;98580.48;102365;1291;75276;-25
2022/12/08 00:48:09;;;;;;;15.40;6.70;;;;;;;0.99;81.24;98582.14;102098;1299;75702;-25
2022/12/08 00:50:36;;;;;;;7.50;5.00;;;;;;;0.79;81.57;98581.57;102302;1291;74292;-25
2022/12/08 00:53:03;;;;;;;10.60;6.80;;;;;;;0.50;82.41;98585.83;102283;1299;60994;-25
2022/12/08 00:55:30;;;;;;;6.30;3.80;;;;;;;0.31;83.05;98587.39;102411;1292;61164;-25
2022/12/08 00:57:57;;;;;;;14.00;8.00;;;;;;;0.43;83.40;98584.97;102308;1291;75016;-25
2022/12/08 01:00:24;;;;;;;8.10;5.30;;;;;;;0.86;82.35;98581.07;102339;1299;76004;-25
2022/12/08 01:02:51;;;;;;;13.00;7.90;;;;;;;0.97;81.42;98581.89;102344;1291;74291;-25
2022/12/08 01:05:18;;;;;;;10.00;6.00;;;;;;;0.78;81.57;98582.64;102377;1298;61088;-25
2022/12/08 01:07:47;;;;;;;11.90;6.10;;;;;;;0.51;82.12;98587.33;102105;1296;61714;-25
2022/12/08 01:10:15;;;;;;;11.80;5.80;;;;;;;0.26;83.01;98590.71;102376;1292;75299;-25
2022/12/08 01:12:43;;;;;;;9.80;6.70;;;;;;;0.34;83.58;98595.48;102364;1299;75842;-25
2022/12/08 01:15:10;;;;;;;9.20;5.40;;;;;;;0.91;82.35;98592.08;102370;1299;73953;-25
2022/12/08 01:17:38;;;;;;;11.80;7.40;;;;;;;0.98;81.13;98597.74;102308;1299;61073;-24
2022/12/08 01:20:05;;;;;;;13.00;7.00;;;;;;;0.73;81.67;98603.71;102234;1292;61062;-23
2022/12/08 01:22:34;;;;;;;10.60;6.30;;;;;;;0.43;82.90;98607.50;102084;1295;75161;-24
2022/12/08 01:25:02;;;;;;;10.00;5.80;;;;;;;0.19;83.98;98604.54;102236;1294;75899;-25
2022/12/08 01:27:29;;;;;;;5.00;3.10;;;;;;;0.47;83.64;98603.58;102336;1298;74337;-25
2022/12/08 01:29:56;;;;;;;9.50;5.60;;;;;;;0.95;82.15;98601.44;102299;1299;61739;-25
2022/12/08 01:32:23;;;;;;;15.00;7.60;;;;;;;0.88;81.39;98604.51;102286;1299;61554;-26
2022/12/08 01:34:50;;;;;;;17.30;8.00;;;;;;;0.74;81.93;98607.94;102358;1299;75341;-26
2022/12/08 01:37:17;;;;;;;14.40;7.00;;;;;;;0.54;82.42;98618.09;102291;1299;75789;-27
2022/12/08 01:39:45;;;;;;;12.30;7.70;;;;;;;0.29;83.20;98615.36;102057;1294;74050;-27
2022/12/08 01:42:22;;;;;;;8.30;4.70;;;;;;;0.18;84.10;98618.58;102065;1299;61725;-27
2022/12/08 01:44:53;;;;;;;10.10;6.60;;;;;;;0.71;83.10;98620.73;102283;1301;62174;-25
2022/12/08 01:47:21;;;;;;;10.90;6.30;;;;;;;0.84;81.88;98620.13;102027;1302;75399;-25
2022/12/08 01:49:48;;;;;;;10.20;6.50;;;;;;;0.77;81.90;98616.35;102066;1299;74976;-25
2022/12/08 01:52:24;;;;;;;10.70;5.20;;;;;;;0.67;81.92;98619.88;101960;1302;74322;-25
2022/12/08 01:54:57;;;;;;;9.80;6.10;;;;;;;0.43;82.43;98615.54;102148;1302;61137;-25
2022/12/08 01:57:33;;;;;;;11.40;6.60;;;;;;;0.41;83.02;98616.48;102148;1294;61821;-25
2022/12/08 02:00:08;;;;;;;14.30;6.90;;;;;;;0.93;81.97;98614.39;102260;1294;73288;-26
2022/12/08 02:02:59;;;;;;;8.70;5.80;;;;;;;1.16;80.94;98612.39;102263;1301;75842;-25
2022/12/08 02:05:32;;;;;;;12.80;7.20;;;;;;;1.06;80.61;98613.06;102356;1299;74179;-25
2022/12/08 02:08:00;;;;;;;11.00;6.90;;;;;;;0.75;81.13;98617.63;102119;1299;61183;-25
2022/12/08 02:10:29;;;;;;;13.60;7.70;;;;;;;0.56;81.56;98622.64;102034;1299;61866;-25
2022/12/08 02:12:57;;;;;;;12.00;8.10;;;;;;;0.38;82.15;98621.40;102081;1302;75253;-25
2022/12/08 02:15:32;;;;;;;7.90;5.00;;;;;;;0.20;82.68;98621.73;102360;1293;75635;-25
2022/12/08 02:18:02;;;;;;;12.90;6.40;;;;;;;0.60;82.67;98626.05;102156;1299;73399;-25
2022/12/08 02:20:41;;;;;;;7.50;5.10;;;;;;;1.10;80.98;98621.27;102252;1298;61672;-25
2022/12/08 02:23:21;;;;;;;12.70;7.40;;;;;;;1.18;80.31;98619.84;102221;1291;61863;-25
2022/12/08 02:25:58;;;;;;;10.40;6.50;;;;;;;0.97;80.41;98617.10;102281;1299;75427;-25
2022/12/08 02:28:39;;;;;;;13.20;8.20;;;;;;;0.67;81.00;98620.24;102342;1295;75229;-25
2022/12/08 02:31:15;;;;;;;12.20;6.50;;;;;;;0.40;81.55;98619.30;102199;1300;74179;-25
2022/12/08 02:34:06;;;;;;;11.60;5.40;;;;;;;0.42;82.35;98621.73;102279;1298;62715;-25
2022/12/08 02:36:47;;;;;;;12.70;7.40;;;;;;;1.05;81.13;98618.73;102180;1299;61797;-25
2022/12/08 02:39:44;;;;;;;15.50;5.70;;;;;;;1.15;80.24;98619.11;102255;1302;75278;-25
2022/12/08 02:42:21;;;;;;;12.80;7.70;;;;;;;0.86;80.41;98624.11;102139;1302;75866;-26
2022/12/08 02:45:01;;;;;;;6.30;4.80;;;;;;;0.58;81.06;98635.66;102293;1302;74127;-25
2022/12/08 02:47:28;;;;;;;9.70;5.80;;;;;;;0.29;82.19;98636.52;102263;1298;61120;-25
2022/12/08 02:49:56;;;;;;;12.80;7.60;;;;;;;0.50;82.44;98636.23;102253;1295;61877;-25
2022/12/08 02:52:23;;;;;;;17.00;7.50;;;;;;;0.77;81.71;98634.64;102389;1292;75461;-25
2022/12/08 02:55:32;;;;;;;9.90;4.90;;;;;;;0.79;81.18;98631.64;102382;1299;75865;-25
2022/12/08 02:58:11;;;;;;;8.60;6.10;;;;;;;0.46;81.64;98639.33;102172;1298;74564;-25
2022/12/08 03:01:20;;;;;;;6.60;4.30;;;;;;;0.13;82.77;98636.54;102307;1299;61146;-25
2022/12/08 03:04:14;;;;;;;9.10;5.70;;;;;;;0.42;83.01;98638.30;101705;1307;61892;-25
2022/12/08 03:06:54;;;;;;;10.60;6.20;;;;;;;0.75;81.57;98638.83;101520;1307;75286;-25
2022/12/08 03:09:27;;;;;;;7.40;4.50;;;;;;;0.58;81.46;98636.86;101536;1307;74614;-25
2022/12/08 03:11:59;;;;;;;7.40;4.60;;;;;;;0.28;82.23;98637.73;101630;1310;74583;-25
2022/12/08 03:14:26;;;;;;;12.40;6.60;;;;;;;0.09;82.89;98643.39;101632;1306;61180;-26
2022/12/08 03:16:54;;;;;;;12.50;6.80;;;;;;;0.22;83.30;98645.69;101608;1303;61878;-25
2022/12/08 03:19:26;;;;;;;12.10;5.70;;;;;;;0.67;82.20;98648.94;101311;1303;75436;-25
2022/12/08 03:22:04;;;;;;;13.50;7.10;;;;;;;0.71;81.58;98645.34;101329;1303;75912;-25
2022/12/08 03:24:39;;;;;;;8.60;6.10;;;;;;;0.56;81.63;98648.77;101527;1310;74279;-25
2022/12/08 03:27:08;;;;;;;9.40;6.10;;;;;;;0.31;82.40;98652.67;101666;1307;61774;-25
2022/12/08 03:29:35;;;;;;;10.70;5.60;;;;;;;0.14;82.99;98654.44;101359;1307;61054;-26
2022/12/08 03:32:28;;;;;;;11.50;6.50;;;;;;;0.54;82.75;98651.25;101633;1299;75431;-25
2022/12/08 03:34:55;;;;;;;11.80;6.10;;;;;;;0.88;81.32;98650.87;101643;1307;76266;-25
2022/12/08 03:37:23;;;;;;;11.70;6.10;;;;;;;0.77;81.02;98649.52;101550;1307;74424;-25
2022/12/08 03:39:50;;;;;;;10.70;5.80;;;;;;;0.48;81.75;98655.81;102395;1291;61056;-25
2022/12/08 03:42:17;;;;;;;11.80;6.60;;;;;;;0.24;82.60;98650.23;102388;1298;61758;-25
2022/12/08 03:44:44;;;;;;;7.00;5.10;;;;;;;0.38;83.06;98655.38;102372;1298;74407;-25
2022/12/08 03:47:11;;;;;;;10.70;7.50;;;;;;;0.78;81.49;98653.20;102358;1298;75754;-25
2022/12/08 03:49:39;;;;;;;12.10;6.70;;;;;;;0.71;81.14;98652.00;102345;1291;74233;-25
2022/12/08 03:52:08;;;;;;;13.00;7.30;;;;;;;0.50;81.53;98660.50;102189;1299;61057;-25
2022/12/08 03:54:35;;;;;;;9.90;5.60;;;;;;;0.21;82.38;98664.16;102288;1291;61907;-25
2022/12/08 03:57:02;;;;;;;9.70;5.80;;;;;;;0.19;82.91;98668.70;102209;1294;75505;-25
2022/12/08 03:59:29;;;;;;;6.50;4.50;;;;;;;0.55;81.91;98674.08;102158;1299;75731;-25
2022/12/08 04:01:56;;;;;;;9.10;4.70;;;;;;;0.50;81.60;98677.41;102310;1298;74365;-25
2022/12/08 04:04:23;;;;;;;12.70;7.10;;;;;;;0.36;82.06;98677.70;102353;1298;61034;-25
2022/12/08 04:06:50;;;;;;;12.00;5.10;;;;;;;0.05;82.59;98680.77;102342;1298;61612;-25
2022/12/08 04:09:17;;;;;;;10.80;6.10;;;;;;;-0.04;83.32;98681.31;102389;1298;75186;-25
2022/12/08 04:11:44;;;;;;;10.30;5.70;;;;;;;0.31;82.77;98681.67;102270;1298;75646;-25
2022/12/08 04:14:12;;;;;;;6.30;5.40;;;;;;;0.48;81.65;98681.91;102370;1299;74208;-26
2022/12/08 04:16:39;;;;;;;11.10;6.20;;;;;;;0.36;81.63;98680.06;102360;1298;61056;-26
2022/12/08 04:19:06;;;;;;;13.20;7.50;;;;;;;0.10;82.16;98677.98;102306;1291;61088;-26
2022/12/08 04:21:33;;;;;;;9.40;6.00;;;;;;;-0.07;82.87;98677.86;102363;1298;75216;-26
2022/12/08 04:24:00;;;;;;;7.00;4.50;;;;;;;0.13;83.15;98680.91;102231;1301;75840;-25
2022/12/08 04:26:28;;;;;;;15.20;8.70;;;;;;;0.44;82.13;98680.23;102351;1291;74058;-26
2022/12/08 04:28:57;;;;;;;10.70;4.80;;;;;;;0.45;81.46;98679.66;102262;1299;61418;-26
2022/12/08 04:31:25;;;;;;;6.90;4.70;;;;;;;0.26;81.57;98681.04;102351;1293;61837;-27
2022/12/08 04:33:52;;;;;;;7.70;5.50;;;;;;;0.01;82.11;98681.98;102308;1297;75376;-26
2022/12/08 04:36:20;;;;;;;7.70;5.00;;;;;;;0.05;82.45;98678.05;102326;1299;75704;-26
2022/12/08 04:38:48;;;;;;;11.10;6.30;;;;;;;0.51;81.56;98683.15;102393;1299;72879;-27
2022/12/08 04:41:15;;;;;;;8.80;5.90;;;;;;;0.58;80.68;98683.50;102373;1292;61775;-25
2022/12/08 04:43:43;;;;;;;4.70;2.90;;;;;;;0.41;80.81;98687.02;102325;1299;62021;-25
2022/12/08 04:46:10;;;;;;;10.50;6.60;;;;;;;0.15;81.32;98688.84;102380;1296;75203;-25
2022/12/08 04:48:37;;;;;;;10.90;5.90;;;;;;;-0.10;81.96;98688.59;102330;1299;75543;-25
2022/12/08 04:51:05;;;;;;;11.40;6.60;;;;;;;-0.22;82.94;98685.88;102401;1297;74207;-25
2022/12/08 04:53:32;;;;;;;7.30;4.60;;;;;;;0.18;82.26;98692.80;102331;1291;61106;-25
2022/12/08 04:55:59;;;;;;;5.90;3.80;;;;;;;0.35;81.07;98695.52;102324;1299;61850;-25
2022/12/08 04:58:26;;;;;;;7.90;4.20;;;;;;;0.16;81.16;98695.32;102284;1293;75388;-27
2022/12/08 05:00:53;;;;;;;9.20;5.50;;;;;;;-0.06;81.38;98694.73;102338;1299;75873;-25
2022/12/08 05:03:21;;;;;;;6.60;4.40;;;;;;;-0.28;82.06;98694.83;102370;1299;74391;-25
2022/12/08 05:05:55;;;;;;;5.50;3.70;;;;;;;-0.20;82.17;98693.47;102319;1302;62705;-25
2022/12/08 05:08:22;;;;;;;8.40;5.10;;;;;;;0.27;81.00;98697.74;102358;1291;61837;-25
2022/12/08 05:10:49;;;;;;;6.80;3.90;;;;;;;0.28;80.04;98700.08;102374;1292;75394;-25
2022/12/08 05:13:17;;;;;;;6.10;3.40;;;;;;;-0.05;80.32;98700.84;102428;1299;75520;-25
2022/12/08 05:15:44;;;;;;;6.70;4.50;;;;;;;-0.28;80.95;98706.07;102344;1299;74062;-25
2022/12/08 05:18:10;;;;;;;6.60;4.40;;;;;;;-0.55;81.91;98708.89;102346;1298;61219;-25
2022/12/08 05:20:37;;;;;;;7.10;5.30;;;;;;;-0.55;82.53;98711.29;102323;1298;61818;-25
2022/12/08 05:23:04;;;;;;;4.60;3.40;;;;;;;-0.10;81.51;98710.79;102408;1299;75415;-25
2022/12/08 05:25:31;;;;;;;6.20;4.50;;;;;;;0.05;80.51;98710.64;102179;1302;75621;-27
2022/12/08 05:27:59;;;;;;;5.30;3.50;;;;;;;-0.10;80.25;98710.45;102326;1297;73228;-25
2022/12/08 05:30:46;;;;;;;5.90;3.40;;;;;;;-0.51;81.32;98715.55;102342;1291;61174;-25
2022/12/08 05:33:14;;;;;;;5.50;2.90;;;;;;;-0.71;81.94;98717.23;102383;1292;61749;-25
2022/12/08 05:35:41;;;;;;;9.20;6.00;;;;;;;-0.75;82.40;98718.71;102228;1301;74360;-25
2022/12/08 05:38:09;;;;;;;5.90;4.00;;;;;;;-0.17;81.64;98721.34;102356;1299;75742;-26
2022/12/08 05:40:40;;;;;;;7.10;4.20;;;;;;;0.14;79.94;98723.39;102209;1295;74259;-25
2022/12/08 05:43:08;;;;;;;6.40;3.50;;;;;;;0.06;79.53;98718.96;102116;1301;61128;-25
2022/12/08 05:45:36;;;;;;;6.90;4.30;;;;;;;-0.20;79.70;98725.36;102379;1291;62046;-25
2022/12/08 05:48:04;;;;;;;7.90;4.60;;;;;;;-0.48;80.35;98729.08;102407;1298;75701;-25
2022/12/08 05:50:31;;;;;;;6.70;3.80;;;;;;;-0.76;81.05;98730.54;102140;1302;75607;-25
2022/12/08 05:52:58;;;;;;;6.70;2.90;;;;;;;-0.61;81.71;98732.66;102378;1299;74041;-25
2022/12/08 05:55:25;;;;;;;5.00;3.60;;;;;;;-0.23;80.50;98730.95;102272;1291;62091;-25
2022/12/08 05:57:52;;;;;;;6.00;3.50;;;;;;;-0.24;80.11;98727.58;102340;1293;61812;-26
2022/12/08 06:00:20;;;;;;;6.60;4.20;;;;;;;-0.38;80.12;98734.47;102344;1299;75322;-24
2022/12/08 06:02:48;;;;;;;8.80;5.00;;;;;;;-0.63;80.39;98739.73;102287;1299;75708;-23
2022/12/08 06:05:15;;;;;;;3.40;2.50;;;;;;;-0.87;81.22;98745.97;102333;1299;74110;-24
2022/12/08 06:07:42;;;;;;;6.20;4.80;;;;;;;-0.67;81.78;98746.89;102381;1299;61063;-24
2022/12/08 06:10:10;;;;;;;5.50;3.60;;;;;;;-0.21;80.48;98751.49;102338;1299;61837;-24
2022/12/08 06:12:37;;;;;;;8.30;5.20;;;;;;;-0.15;79.51;98752.98;102053;1300;75228;-24
2022/12/08 06:15:05;;;;;;;8.10;5.20;;;;;;;-0.36;79.80;98755.52;102354;1299;75753;-25
2022/12/08 06:17:32;;;;;;;6.60;4.10;;;;;;;-0.60;79.85;98762.83;102072;1299;74057;-24
2022/12/08 06:19:59;;;;;;;6.70;4.60;;;;;;;-0.85;80.54;98762.91;102349;1291;61125;-24
2022/12/08 06:22:27;;;;;;;4.40;2.90;;;;;;;-0.94;81.61;98765.35;102363;1292;61958;-24
2022/12/08 06:24:54;;;;;;;3.10;2.40;;;;;;;-0.41;80.81;98762.73;102268;1299;73536;-24
2022/12/08 06:27:21;;;;;;;4.50;2.40;;;;;;;-0.29;79.65;98764.13;102036;1304;75864;-24
2022/12/08 06:29:48;;;;;;;7.80;4.30;;;;;;;-0.38;79.49;98767.90;102383;1299;74224;-24
2022/12/08 06:32:15;;;;;;;4.30;3.10;;;;;;;-0.57;79.78;98773.27;102137;1300;61236;-25
2022/12/08 06:34:45;;;;;;;6.40;4.20;;;;;;;-0.80;80.39;98776.02;102332;1299;61835;-24
2022/12/08 06:37:12;;;;;;;4.10;2.50;;;;;;;-0.98;81.12;98778.44;102300;1297;74416;-24
2022/12/08 06:39:39;;;;;;;5.60;3.40;;;;;;;-0.57;81.00;98779.05;102360;1298;75721;-24
2022/12/08 06:44:52;;;;;;;5.20;2.60;;;;;;;-0.02;78.39;98777.52;102276;1297;61914;-24
2022/12/08 06:47:21;;;;;;;5.50;3.60;;;;;;;-0.27;78.71;98776.31;102337;1291;61650;-25
2022/12/08 06:49:53;;;;;;;6.70;3.80;;;;;;;-0.52;79.38;98782.27;102303;1298;75540;-25
2022/12/08 06:52:19;;;;;;;6.40;4.10;;;;;;;-0.72;80.13;98784.59;102325;1298;75945;-25
2022/12/08 06:54:46;;;;;;;3.40;2.40;;;;;;;-0.84;80.57;98785.06;102287;1291;73176;-26
2022/12/08 06:57:13;;;;;;;7.10;4.30;;;;;;;-0.38;80.21;98784.95;102399;1293;61145;-27
2022/12/08 06:59:40;;;;;;;6.70;4.20;;;;;;;-0.01;78.76;98787.19;102300;1297;61668;-26
2022/12/08 07:02:08;;;;;;;6.50;3.80;;;;;;;-0.08;78.00;98790.04;102388;1299;75350;-25
2022/12/08 07:04:35;;;;;;;7.40;3.30;;;;;;;-0.28;78.63;98797.17;102364;1299;75999;-24
2022/12/08 07:07:03;;;;;;;9.50;5.60;;;;;;;-0.48;79.15;98798.67;102378;1291;74140;-25
2022/12/08 07:09:30;;;;;;;4.90;3.10;;;;;;;-0.65;79.49;98800.35;102340;1298;61143;-25
2022/12/08 07:11:57;;;;;;;5.50;2.50;;;;;;;-0.47;80.29;98805.27;102143;1301;61711;-25
2022/12/08 07:14:24;;;;;;;6.60;4.20;;;;;;;0.11;78.97;98800.87;102362;1291;75083;-25
2022/12/08 07:16:51;;;;;;;4.30;3.00;;;;;;;0.28;77.73;98802.35;102404;1299;75781;-26
2022/12/08 07:19:18;;;;;;;9.00;5.40;;;;;;;0.17;77.70;98803.33;102314;1298;74224;-27
2022/12/08 07:21:45;;;;;;;9.60;5.90;;;;;;;-0.04;77.93;98807.82;102320;1291;61202;-28
2022/12/08 07:24:12;;;;;;;5.30;3.50;;;;;;;-0.28;78.56;98814.42;102082;1302;62110;-28
2022/12/08 07:26:40;;;;;;;12.20;6.20;;;;;;;-0.52;79.77;98813.84;102232;1291;75461;-26
2022/12/08 07:29:08;;;;;;;6.70;3.80;;;;;;;-0.36;79.79;98819.66;102383;1296;75681;-27
2022/12/08 07:31:35;;;;;;;6.90;3.80;;;;;;;0.06;78.92;98822.91;102210;1297;74105;-26
2022/12/08 07:34:03;;;;;;;9.80;5.60;;;;;;;0.12;77.92;98820.80;102244;1291;61114;-26
2022/12/08 07:36:31;;;;;;;9.60;4.90;;;;;;;0.07;77.85;98821.17;102223;1299;61654;-25
2022/12/08 07:38:58;;;;;;;6.70;3.60;;;;;;;-0.10;77.92;98823.42;102298;1297;75208;-26
2022/12/08 07:41:26;;;;;;;8.30;4.90;;;;;;;-0.27;78.36;98826.80;102275;1297;75664;-25
2022/12/08 07:43:54;;;;;;;7.80;4.70;;;;;;;-0.09;78.71;98832.07;102366;1298;74187;-25
2022/12/08 07:46:22;;;;;;;5.60;3.40;;;;;;;0.62;77.80;98831.30;102181;1297;61116;-25
2022/12/08 07:48:51;;;;;;;6.20;3.90;;;;;;;0.92;76.18;98835.09;102063;1300;61937;-25
2022/12/08 07:51:18;;;;;;;6.90;4.10;;;;;;;0.82;75.68;98829.41;102166;1301;75564;-25
2022/12/08 07:53:46;;;;;;;6.40;4.40;;;;;;;0.64;75.80;98831.05;102393;1299;74845;-25
2022/12/08 07:56:22;;;;;;;8.40;4.90;;;;;;;0.45;76.27;98838.70;102135;1299;74175;-25
2022/12/08 07:58:49;;;;;;;8.10;5.20;;;;;;;0.29;76.68;98842.10;102336;1298;62040;-26
2022/12/08 08:01:29;;;;;;;6.40;4.20;;;;;;;0.13;76.93;98846.35;102143;1299;61705;-25
2022/12/08 08:04:00;;;;;;;5.10;3.70;;;;;;;0.08;77.75;98850.84;102081;1305;75323;-26
2022/12/08 08:06:27;;;;;;;7.00;4.00;;;;;;;0.72;77.24;98848.44;102185;1299;75871;-25
2022/12/08 08:08:54;;;;;;;6.80;3.80;;;;;;;1.13;75.62;98850.23;102376;1298;74063;-26
2022/12/08 08:11:21;;;;;;;6.30;4.10;;;;;;;1.17;74.98;98851.77;102316;1299;61906;-25
2022/12/08 08:13:49;;;;;;;9.00;5.20;;;;;;;1.00;74.96;98852.66;102386;1299;61718;-25
2022/12/08 08:16:17;;;;;;;6.40;3.70;;;;;;;0.80;75.42;98850.67;102183;1297;75276;-25
2022/12/08 08:18:47;;;;;;;9.20;6.00;;;;;;;0.59;75.87;98856.90;102383;1297;75436;-25
2022/12/08 08:21:14;;;;;;;9.00;5.70;;;;;;;0.42;76.43;98855.23;102154;1302;74262;-25
2022/12/08 08:24:01;;;;;;;4.70;2.80;;;;;;;0.53;77.23;98856.81;102369;1299;61801;-25
2022/12/08 08:26:28;;;;;;;6.30;3.40;;;;;;;1.19;75.60;98858.14;102383;1297;61826;-25
2022/12/08 08:28:55;;;;;;;6.00;4.40;;;;;;;1.44;74.40;98855.29;102302;1291;75249;-26
2022/12/08 08:31:25;;;;;;;8.80;4.20;;;;;;;1.44;74.10;98857.86;102346;1299;74584;-25
2022/12/08 08:33:53;;;;;;;6.40;4.60;;;;;;;1.24;74.33;98856.73;102107;1301;74253;-25
2022/12/08 08:36:20;;;;;;;7.50;5.00;;;;;;;1.07;74.79;98857.16;102352;1298;61015;-25
2022/12/08 08:38:48;;;;;;;5.80;3.50;;;;;;;0.88;75.10;98855.42;102246;1301;61740;-25
2022/12/08 08:41:15;;;;;;;9.30;3.40;;;;;;;0.58;76.07;98856.90;102392;1292;75419;-25
2022/12/08 08:43:42;;;;;;;3.70;2.20;;;;;;;0.83;76.22;98851.40;102307;1298;74739;-26
2022/12/08 08:46:09;;;;;;;5.90;3.70;;;;;;;1.42;75.05;98851.82;102336;1297;74222;-25
2022/12/08 08:48:37;;;;;;;5.40;3.80;;;;;;;1.49;73.75;98849.27;102144;1292;61856;-26
2022/12/08 08:51:11;;;;;;;7.60;4.70;;;;;;;1.32;73.87;98847.66;102311;1299;61104;-26
2022/12/08 08:53:38;;;;;;;6.40;3.70;;;;;;;1.15;74.66;98849.13;102025;1306;75694;-26
2022/12/08 08:56:14;;;;;;;10.30;5.50;;;;;;;1.08;74.80;98852.83;102285;1294;74820;-26
2022/12/08 08:58:41;;;;;;;7.90;4.80;;;;;;;0.88;75.40;98848.27;102151;1302;71063;-26
2022/12/08 09:01:08;;;;;;;8.00;3.90;;;;;;;0.73;75.94;98844.84;102350;1299;61095;-26
2022/12/08 09:03:35;;;;;;;5.80;4.00;;;;;;;0.97;76.16;98845.15;102140;1303;61712;-27
2022/12/08 09:06:02;;;;;;;7.60;4.70;;;;;;;1.60;74.58;98848.92;102333;1298;75184;-26
2022/12/08 09:08:30;;;;;;;9.00;4.60;;;;;;;1.85;73.60;98846.01;101426;1305;1190539;-27
2022/12/08 09:10:59;;;;;;;8.70;4.40;;;;;;;1.82;73.02;98845.63;102100;1295;74137;-26
2022/12/08 09:13:27;;;;;;;8.00;5.50;;;;;;;1.56;73.19;98838.48;102296;1299;61125;-26
2022/12/08 09:15:54;;;;;;;9.20;5.10;;;;;;;1.47;73.87;98835.86;102094;1302;62006;-26
2022/12/08 09:18:21;;;;;;;6.70;4.40;;;;;;;1.56;73.88;98837.62;102418;1298;75404;-27
2022/12/08 09:20:48;;;;;;;11.40;4.90;;;;;;;1.44;73.64;98833.94;102421;1299;75651;-25
2022/12/08 09:23:15;;;;;;;6.20;3.30;;;;;;;1.32;74.14;98832.23;102332;1291;72893;-25
2022/12/08 09:25:45;;;;;;;5.40;3.60;;;;;;;1.92;74.34;98835.73;102320;1299;61108;-25
2022/12/08 09:28:15;;;;;;;10.40;4.80;;;;;;;2.40;72.66;98832.67;101927;1302;61810;-25
2022/12/08 09:30:42;;;;;;;7.70;4.60;;;;;;;2.49;71.59;98830.64;102386;1299;75456;-25
2022/12/08 09:33:09;;;;;;;12.90;5.50;;;;;;;2.42;71.24;98828.64;102356;1299;75600;-25
2022/12/08 09:35:36;;;;;;;6.70;4.30;;;;;;;2.33;71.96;98827.71;102372;1299;73848;-25
2022/12/08 09:38:03;;;;;;;9.40;5.10;;;;;;;2.23;71.96;98828.02;102117;1294;61501;-25
2022/12/08 09:40:32;;;;;;;8.30;4.90;;;;;;;2.14;72.01;98828.00;102075;1300;61731;-25
2022/12/08 09:43:22;;;;;;;8.50;5.40;;;;;;;2.06;72.27;98827.70;102144;1295;75301;-26
2022/12/08 09:45:50;;;;;;;8.80;4.80;;;;;;;1.97;72.28;98832.27;102070;1299;75810;-25
2022/12/08 09:48:19;;;;;;;6.90;3.40;;;;;;;1.94;72.80;98828.30;102280;1302;74481;-25
2022/12/08 09:50:52;;;;;;;5.40;3.20;;;;;;;2.47;72.86;98826.34;101956;1299;61169;-25
2022/12/08 09:53:41;;;;;;;6.50;3.70;;;;;;;3.15;70.57;98831.82;102036;1302;62092;-26
2022/12/08 09:56:16;;;;;;;8.30;4.50;;;;;;;3.26;69.88;98830.42;102183;1300;74839;-26
2022/12/08 09:58:54;;;;;;;5.70;3.70;;;;;;;3.14;69.96;98828.77;101942;1303;75652;-26
2022/12/08 10:01:23;;;;;;;6.80;4.20;;;;;;;2.92;70.05;98827.58;102121;1300;74224;-26
2022/12/08 10:03:50;;;;;;;7.80;4.80;;;;;;;2.66;70.13;98820.70;102167;1302;61110;-26
2022/12/08 10:07:01;;;;;;;7.90;4.20;;;;;;;2.38;70.72;98824.90;102129;1300;61761;-26
2022/12/08 10:09:39;;;;;;;7.30;4.30;;;;;;;1.97;71.64;98817.33;102094;1299;75486;-26
2022/12/08 10:12:24;;;;;;;5.80;3.90;;;;;;;1.74;72.55;98817.10;102085;1301;75061;-26
2022/12/08 10:15:12;;;;;;;5.10;3.40;;;;;;;2.04;73.30;98816.98;102185;1302;74232;-25
2022/12/08 10:17:50;;;;;;;4.70;3.30;;;;;;;2.70;71.08;98812.41;102219;1299;61857;-27
2022/12/08 10:20:19;;;;;;;4.50;3.70;;;;;;;2.77;70.34;98813.83;102089;1297;61938;-26
2022/12/08 10:22:49;;;;;;;6.70;3.80;;;;;;;2.59;70.24;98810.95;102057;1299;74472;-26
2022/12/08 10:25:18;;;;;;;6.00;3.90;;;;;;;2.37;70.73;98810.21;101994;1303;76260;-26
2022/12/08 10:27:47;;;;;;;5.60;4.20;;;;;;;2.14;71.28;98810.34;102366;1296;74027;-28
2022/12/08 10:30:16;;;;;;;6.20;3.70;;;;;;;1.93;71.62;98810.20;102275;1300;61985;-26
2022/12/08 10:32:44;;;;;;;6.90;4.10;;;;;;;1.69;72.33;98810.47;102298;1305;62577;-25
2022/12/08 10:36:17;;;;;;;11.90;4.70;;;;;;;1.58;73.03;98808.98;99308;1328;601129;-26
2022/12/08 10:38:44;;;;;;;3.80;2.70;;;;;;;1.62;73.16;98813.05;101307;1311;61021;-26
2022/12/08 10:41:12;;;;;;;4.10;3.00;;;;;;;2.22;73.24;98808.38;101093;1314;62683;-26
2022/12/08 10:43:51;;;;;;;5.80;3.40;;;;;;;2.93;70.94;98813.65;101838;1309;73437;-26
2022/12/08 10:46:19;;;;;;;9.00;3.80;;;;;;;2.89;69.26;98814.73;101676;1309;77162;-26
2022/12/08 10:49:09;;;;;;;6.30;4.30;;;;;;;2.73;69.53;98814.14;100971;1304;1308988;-25
2022/12/08 10:51:36;;;;;;;6.80;4.90;;;;;;;2.53;70.26;98812.48;101885;1297;62211;-25
2022/12/08 10:54:04;;;;;;;6.90;4.40;;;;;;;2.32;70.64;98810.10;101866;1302;61026;-25
2022/12/08 10:56:32;;;;;;;4.70;2.40;;;;;;;2.06;71.20;98811.07;101918;1302;74919;-25
2022/12/08 10:59:20;;;;;;;7.40;5.20;;;;;;;1.75;71.92;98811.58;101913;1305;74987;-25
2022/12/08 11:01:48;;;;;;;5.20;3.40;;;;;;;1.53;72.94;98808.36;101864;1304;73999;-25
2022/12/08 11:04:35;;;;;;;3.90;2.90;;;;;;;1.60;73.70;98808.38;101715;1302;62716;-25
2022/12/08 11:07:05;;;;;;;7.20;4.00;;;;;;;2.24;72.03;98802.15;101774;1298;61200;-26
2022/12/08 11:09:39;;;;;;;6.60;4.20;;;;;;;2.41;71.39;98802.98;102049;1298;73634;-26
2022/12/08 11:12:08;;;;;;;6.60;4.40;;;;;;;2.28;71.15;98801.77;102002;1304;76537;-26
2022/12/08 11:14:45;;;;;;;4.50;3.40;;;;;;;2.06;71.52;98801.33;102226;1301;75207;-26
2022/12/08 11:17:22;;;;;;;5.00;3.30;;;;;;;1.81;71.87;98801.86;102076;1297;62173;-26
2022/12/08 11:19:58;;;;;;;4.20;3.20;;;;;;;1.55;72.50;98799.70;102171;1299;62614;-26
2022/12/08 11:22:30;;;;;;;5.30;3.90;;;;;;;1.30;73.15;98797.30;101975;1296;75243;-26
2022/12/08 11:25:06;;;;;;;6.40;3.30;;;;;;;1.08;74.07;98795.73;102154;1297;76966;-26
2022/12/08 11:27:35;;;;;;;6.90;4.20;;;;;;;1.30;74.02;98797.25;102211;1298;73907;-25
2022/12/08 11:30:11;;;;;;;3.40;2.40;;;;;;;1.70;73.21;98797.78;102219;1299;61834;-26
2022/12/08 11:32:43;;;;;;;4.60;2.90;;;;;;;1.63;72.35;98803.42;102324;1300;62598;-26
2022/12/08 11:35:20;;;;;;;5.10;4.00;;;;;;;1.33;73.24;98802.48;102412;1298;75283;-25
2022/12/08 11:37:47;;;;;;;6.20;4.20;;;;;;;1.19;73.73;98799.86;101990;1301;75729;-25
2022/12/08 11:40:39;;;;;;;8.20;5.40;;;;;;;1.04;74.08;98797.11;102295;1302;75189;-25
2022/12/08 11:43:27;;;;;;;4.40;3.50;;;;;;;0.80;75.12;98801.45;102308;1299;61244;-25
2022/12/08 11:46:25;;;;;;;9.70;5.30;;;;;;;1.10;75.22;98802.13;102332;1292;61848;-25
2022/12/08 11:48:58;;;;;;;7.30;5.40;;;;;;;1.68;73.21;98800.63;102062;1299;74246;-25
2022/12/08 11:51:56;;;;;;;8.20;4.80;;;;;;;1.73;72.68;98804.52;102222;1297;76532;-24
2022/12/08 11:54:35;;;;;;;5.60;3.90;;;;;;;1.58;72.84;98810.86;102247;1299;75124;-25